createdAt,value
2023-03-11T00:00:22.584Z,101179.31
2023-03-11T00:01:26.382Z,101178.31
2023-03-11T00:02:30.061Z,101178.97
2023-03-11T00:03:33.768Z,101174.13
2023-03-11T00:04:37.629Z,101183.34
2023-03-11T00:05:42.658Z,101179.94
2023-03-11T00:06:46.283Z,101181.72
2023-03-11T00:07:49.942Z,101171.56
2023-03-11T00:08:53.625Z,101187.22
2023-03-11T00:09:57.242Z,101189.31
2023-03-11T00:11:01.346Z,101190.28
2023-03-11T00:12:07.621Z,101193.19
2023-03-11T00:13:13.706Z,101200.47
2023-03-11T00:14:17.362Z,101192.88
2023-03-11T00:15:21.201Z,101196.28
2023-03-11T00:16:24.848Z,101195.50
2023-03-11T00:17:28.753Z,101206.19
2023-03-11T00:18:32.448Z,101209.22
2023-03-11T00:19:36.116Z,101212.94
2023-03-11T00:20:41.681Z,101211.19
2023-03-11T00:21:45.444Z,101186.75
2023-03-11T00:22:49.165Z,101209.88
2023-03-11T00:23:52.828Z,101216.22
2023-03-11T00:24:56.542Z,101213.44
2023-03-11T00:26:00.286Z,101212.47
2023-03-11T00:27:05.757Z,101220.53
2023-03-11T00:28:09.583Z,101228.47
2023-03-11T00:29:13.166Z,101223.47
2023-03-11T00:30:18.694Z,101225.09
2023-03-11T00:31:22.406Z,101226.06
2023-03-11T00:32:26.098Z,101225.53
2023-03-11T00:33:29.776Z,101223.59
2023-03-11T00:34:33.455Z,101231.53
2023-03-11T00:35:37.371Z,101229.81
2023-03-11T00:36:41.073Z,101216.97
2023-03-11T00:37:46.295Z,101232.22
2023-03-11T00:38:50.030Z,101238.03
2023-03-11T00:39:53.745Z,101233.00
2023-03-11T00:40:57.347Z,101233.16
2023-03-11T00:42:00.931Z,101236.88
2023-03-11T00:43:06.250Z,101237.00
2023-03-11T00:44:09.879Z,101239.59
2023-03-11T00:45:15.024Z,101237.38
2023-03-11T00:46:18.780Z,101239.75
2023-03-11T00:47:22.459Z,101243.72
2023-03-11T00:48:26.399Z,101234.59
2023-03-11T00:49:29.999Z,101241.97
2023-03-11T00:50:35.100Z,101238.22
2023-03-11T00:51:38.756Z,101244.03
2023-03-11T00:52:42.387Z,101246.28
2023-03-11T00:53:46.488Z,101246.88
2023-03-11T00:54:50.142Z,101248.50
2023-03-11T00:55:53.783Z,101242.50
2023-03-11T00:56:57.462Z,101231.81
2023-03-11T00:58:02.255Z,101240.38
2023-03-11T00:59:07.526Z,101245.06
2023-03-11T01:00:15.266Z,101251.22
2023-03-11T01:01:21.105Z,101241.34
2023-03-11T01:02:24.801Z,101241.63
2023-03-11T01:03:28.592Z,101248.75
2023-03-11T01:04:32.269Z,101255.19
2023-03-11T01:05:36.346Z,101241.94
2023-03-11T01:06:45.527Z,101259.25
2023-03-11T01:07:49.751Z,101242.16
2023-03-11T01:08:53.439Z,101253.81
2023-03-11T01:09:57.027Z,101260.50
2023-03-11T01:11:01.445Z,101262.16
2023-03-11T01:12:05.346Z,101259.53
2023-03-11T01:13:09.049Z,101257.22
2023-03-11T01:14:14.482Z,101261.75
2023-03-11T01:15:22.065Z,101264.03
2023-03-11T01:16:25.754Z,101265.81
2023-03-11T01:17:29.470Z,101271.69
2023-03-11T01:18:33.082Z,101245.63
2023-03-11T01:19:36.807Z,101275.22
2023-03-11T01:20:40.873Z,101272.19
2023-03-11T01:21:44.491Z,101277.53
2023-03-11T01:22:48.145Z,101273.16
2023-03-11T01:23:51.785Z,101277.19
2023-03-11T01:24:55.434Z,101279.78
2023-03-11T01:25:59.366Z,101272.13
2023-03-11T01:27:03.005Z,101282.69
2023-03-11T01:28:07.415Z,101279.13
2023-03-11T01:29:11.066Z,101278.69
2023-03-11T01:30:18.677Z,101275.38
2023-03-11T01:31:22.381Z,101282.03
2023-03-11T01:32:26.114Z,101283.31
2023-03-11T01:33:29.751Z,101276.03
2023-03-11T01:34:33.337Z,101287.22
2023-03-11T01:35:37.031Z,101285.59
2023-03-11T01:36:40.748Z,101289.00
2023-03-11T01:37:44.664Z,101285.38
2023-03-11T01:38:48.379Z,101281.63
2023-03-11T01:39:52.023Z,101276.59
2023-03-11T01:40:55.626Z,101289.09
2023-03-11T01:41:59.315Z,101297.03
2023-03-11T01:43:05.216Z,101280.69
2023-03-11T01:44:11.752Z,101277.28
2023-03-11T01:45:42.833Z,101299.28
2023-03-11T01:47:22.999Z,101301.22
2023-03-11T01:48:26.580Z,101308.28
2023-03-11T01:49:30.273Z,101300.16
2023-03-11T01:50:37.470Z,101300.09
2023-03-11T01:51:43.696Z,101310.81
2023-03-11T01:52:48.292Z,101301.28
2023-03-11T01:53:53.038Z,101306.59
2023-03-11T01:54:56.800Z,101312.34
2023-03-11T01:56:02.112Z,101320.53
2023-03-11T01:57:08.765Z,101310.75
2023-03-11T01:58:16.517Z,101311.91
2023-03-11T01:59:24.946Z,101306.69
2023-03-11T02:00:28.671Z,101313.59
2023-03-11T02:01:35.452Z,101320.84
2023-03-11T02:02:45.929Z,101318.59
2023-03-11T02:03:49.976Z,101304.19
2023-03-11T02:04:55.331Z,101316.97
2023-03-11T02:06:01.050Z,101316.28
2023-03-11T02:07:08.515Z,101322.06
2023-03-11T02:08:12.327Z,101315.66
2023-03-11T02:09:23.226Z,101322.94
2023-03-11T02:10:27.340Z,101320.53
2023-03-11T02:11:34.087Z,101317.44
2023-03-11T02:12:38.568Z,101316.09
2023-03-11T02:13:44.878Z,101325.84
2023-03-11T02:14:51.448Z,101317.25
2023-03-11T02:15:55.243Z,101323.03
2023-03-11T02:17:01.712Z,101318.50
2023-03-11T02:18:07.214Z,101320.09
2023-03-11T02:19:24.589Z,101334.00
2023-03-11T02:20:43.390Z,101320.34
2023-03-11T02:21:47.401Z,101324.88
2023-03-11T02:22:51.574Z,101330.50
2023-03-11T02:24:03.400Z,101329.84
2023-03-11T02:25:15.370Z,101331.38
2023-03-11T02:26:27.205Z,101329.31
2023-03-11T02:27:36.511Z,101328.75
2023-03-11T02:28:41.984Z,101334.41
2023-03-11T02:29:46.632Z,101326.06
2023-03-11T02:30:51.189Z,101339.81
2023-03-11T02:31:56.225Z,101336.84
2023-03-11T02:33:00.880Z,101341.44
2023-03-11T02:34:06.866Z,101329.91
2023-03-11T02:35:10.856Z,101334.56
2023-03-11T02:36:34.594Z,101335.50
2023-03-11T02:37:38.610Z,101339.53
2023-03-11T02:38:42.371Z,101335.97
2023-03-11T02:39:48.106Z,101338.13
2023-03-11T02:40:57.061Z,101340.00
2023-03-11T02:42:05.956Z,101334.63
2023-03-11T02:43:16.213Z,101339.00
2023-03-11T02:44:20.014Z,101337.25
2023-03-11T02:45:26.684Z,101334.50
2023-03-11T02:46:33.036Z,101343.81
2023-03-11T02:47:38.932Z,101338.03
2023-03-11T02:48:45.978Z,101339.25
2023-03-11T02:49:49.955Z,101341.63
2023-03-11T02:50:54.384Z,101341.47
2023-03-11T02:51:58.150Z,101336.78
2023-03-11T02:53:01.936Z,101348.91
2023-03-11T02:54:07.163Z,101343.38
2023-03-11T02:55:11.455Z,101338.66
2023-03-11T02:56:15.162Z,101343.03
2023-03-11T02:57:20.497Z,101351.31
2023-03-11T02:58:26.000Z,101335.03
2023-03-11T02:59:29.711Z,101344.69
2023-03-11T03:00:33.666Z,101348.56
2023-03-11T03:01:43.210Z,101345.00
2023-03-11T03:02:47.576Z,101322.84
2023-03-11T03:03:51.625Z,101341.13
2023-03-11T03:04:55.366Z,101343.72
2023-03-11T03:05:59.099Z,101341.44
2023-03-11T03:07:02.852Z,101339.25
2023-03-11T03:08:08.912Z,101337.31
2023-03-11T03:09:12.800Z,101344.09
2023-03-11T03:10:17.931Z,101338.34
2023-03-11T03:11:21.720Z,101347.34
2023-03-11T03:12:25.513Z,101344.06
2023-03-11T03:13:30.952Z,101346.75
2023-03-11T03:14:37.013Z,101341.88
2023-03-11T03:15:40.755Z,101341.22
2023-03-11T03:16:44.660Z,101339.72
2023-03-11T03:17:51.404Z,101328.69
2023-03-11T03:18:55.123Z,101350.56
2023-03-11T03:19:58.914Z,101343.19
2023-03-11T03:21:02.584Z,101336.13
2023-03-11T03:22:06.556Z,101343.69
2023-03-11T03:23:11.975Z,101341.50
2023-03-11T03:24:21.196Z,101338.66
2023-03-11T03:25:27.595Z,101339.81
2023-03-11T03:26:31.217Z,101349.19
2023-03-11T03:27:35.608Z,101319.22
2023-03-11T03:28:43.167Z,101344.75
2023-03-11T03:29:49.807Z,101335.06
2023-03-11T03:30:53.591Z,101332.09
2023-03-11T03:31:59.933Z,101331.75
2023-03-11T03:33:03.650Z,101339.22
2023-03-11T03:34:09.275Z,101328.84
2023-03-11T03:35:17.127Z,101333.53
2023-03-11T03:36:20.920Z,101332.94
2023-03-11T03:37:27.238Z,101326.69
2023-03-11T03:38:30.911Z,101327.16
2023-03-11T03:39:34.606Z,101326.25
2023-03-11T03:40:38.410Z,101315.47
2023-03-11T03:41:46.574Z,101313.00
2023-03-11T03:42:50.356Z,101318.66
2023-03-11T03:43:58.503Z,101309.97
2023-03-11T03:45:02.285Z,101308.56
2023-03-11T03:46:07.088Z,101308.78
2023-03-11T03:47:13.234Z,101313.13
2023-03-11T03:48:17.266Z,101302.47
2023-03-11T03:49:20.998Z,101301.53
2023-03-11T03:50:25.122Z,101298.63
2023-03-11T03:51:31.670Z,101304.03
2023-03-11T03:52:36.529Z,101298.91
2023-03-11T03:53:40.328Z,101305.19
2023-03-11T03:54:46.872Z,101302.72
2023-03-11T03:55:50.582Z,101296.06
2023-03-11T03:56:54.454Z,101302.91
2023-03-11T03:57:58.456Z,101298.88
2023-03-11T04:00:21.398Z,101294.06
2023-03-11T04:01:25.157Z,101299.72
2023-03-11T04:02:29.284Z,101300.38
2023-03-11T04:04:52.956Z,101289.38
2023-03-11T04:06:05.891Z,101297.94
2023-03-11T04:07:11.870Z,101292.44
2023-03-11T04:09:32.904Z,101293.38
2023-03-11T04:10:36.731Z,101282.56
2023-03-11T04:11:56.288Z,101289.13
2023-03-11T04:13:00.066Z,101286.38
2023-03-11T04:14:06.082Z,101278.63
2023-03-11T04:15:10.587Z,101280.47
2023-03-11T04:16:21.029Z,101279.78
2023-03-11T04:17:37.483Z,101280.38
2023-03-11T04:18:42.968Z,101274.84
2023-03-11T04:19:46.756Z,101276.00
2023-03-11T04:20:57.423Z,101276.06
2023-03-11T04:22:01.211Z,101280.72
2023-03-11T04:23:04.975Z,101264.94
2023-03-11T04:25:28.439Z,101273.00
2023-03-11T04:26:32.217Z,101264.00
2023-03-11T04:27:41.495Z,101271.81
2023-03-11T04:28:45.310Z,101257.22
2023-03-11T04:29:50.876Z,101260.19
2023-03-11T04:30:54.699Z,101261.69
2023-03-11T04:31:58.429Z,101264.13
2023-03-11T04:33:02.173Z,101258.56
2023-03-11T04:34:05.905Z,101239.19
2023-03-11T04:35:10.090Z,101256.47
2023-03-11T04:36:14.058Z,101245.91
2023-03-11T04:37:17.833Z,101248.97
2023-03-11T04:38:21.663Z,101243.22
2023-03-11T04:39:27.159Z,101246.22
2023-03-11T04:40:30.848Z,101242.34
2023-03-11T04:41:34.624Z,101237.88
2023-03-11T04:42:38.466Z,101239.91
2023-03-11T04:43:45.257Z,101230.72
2023-03-11T04:44:50.665Z,101224.81
2023-03-11T04:45:57.261Z,101223.78
2023-03-11T04:47:03.865Z,101216.84
2023-03-11T04:48:10.677Z,101211.50
2023-03-11T04:49:14.476Z,101220.66
2023-03-11T04:50:19.071Z,101216.91
2023-03-11T04:51:22.839Z,101209.50
2023-03-11T04:52:29.684Z,101216.41
2023-03-11T04:53:35.527Z,101206.03
2023-03-11T04:54:39.392Z,101198.63
2023-03-11T04:55:43.210Z,101190.53
2023-03-11T04:57:02.829Z,101195.25
2023-03-11T04:58:06.674Z,101187.75
2023-03-11T04:59:12.519Z,101189.38
2023-03-11T05:00:19.598Z,101191.34
2023-03-11T05:01:23.389Z,101192.41
2023-03-11T05:02:37.698Z,101177.31
2023-03-11T05:03:41.492Z,101182.13
2023-03-11T05:04:45.410Z,101184.34
2023-03-11T05:05:51.290Z,101184.09
2023-03-11T05:06:55.014Z,101178.41
2023-03-11T05:08:01.394Z,101179.22
2023-03-11T05:09:10.389Z,101171.91
2023-03-11T05:10:14.550Z,101168.47
2023-03-11T05:11:21.419Z,101169.34
2023-03-11T05:12:36.457Z,101169.00
2023-03-11T05:13:40.253Z,101162.50
2023-03-11T05:14:46.195Z,101164.09
2023-03-11T05:15:56.763Z,101157.84
2023-03-11T05:17:00.482Z,101158.28
2023-03-11T05:18:04.409Z,101152.66
2023-03-11T05:19:08.358Z,101137.84
2023-03-11T05:20:15.105Z,101143.25
2023-03-11T05:21:19.417Z,101144.53
2023-03-11T05:22:23.536Z,101138.06
2023-03-11T05:23:27.282Z,101141.00
2023-03-11T05:24:31.202Z,101137.09
2023-03-11T05:25:34.909Z,101129.75
2023-03-11T05:26:38.590Z,101128.03
2023-03-11T05:27:42.393Z,101133.78
2023-03-11T05:28:46.192Z,101126.06
2023-03-11T05:29:49.943Z,101127.56
2023-03-11T05:30:55.293Z,101120.84
2023-03-11T05:32:01.249Z,101125.31
2023-03-11T05:33:05.096Z,101124.78
2023-03-11T05:34:11.607Z,101125.97
2023-03-11T05:35:19.850Z,101122.38
2023-03-11T05:36:23.529Z,101118.94
2023-03-11T05:37:27.377Z,101112.34
2023-03-11T05:38:33.287Z,101112.44
2023-03-11T05:39:37.050Z,101120.09
2023-03-11T05:40:40.915Z,101097.03
2023-03-11T05:41:48.663Z,101108.41
2023-03-11T05:42:52.475Z,101107.72
2023-03-11T05:43:56.192Z,101108.59
2023-03-11T05:45:02.679Z,101104.31
2023-03-11T05:46:11.466Z,101106.25
2023-03-11T05:47:18.112Z,101105.53
2023-03-11T05:48:24.749Z,101102.78
2023-03-11T05:49:29.107Z,101104.00
2023-03-11T05:50:32.927Z,101107.06
2023-03-11T05:51:36.728Z,101100.16
2023-03-11T05:52:40.388Z,101104.63
2023-03-11T05:53:44.339Z,101100.59
2023-03-11T05:54:51.564Z,101097.75
2023-03-11T05:55:59.220Z,101102.03
2023-03-11T05:57:05.971Z,101099.44
2023-03-11T05:58:11.466Z,101094.09
2023-03-11T05:59:21.248Z,101098.47
2023-03-11T06:00:24.976Z,101088.94
2023-03-11T06:01:30.474Z,101091.69
2023-03-11T06:02:34.221Z,101093.06
2023-03-11T06:03:40.391Z,101086.38
2023-03-11T06:04:47.134Z,101087.44
2023-03-11T06:05:51.454Z,101086.16
2023-03-11T06:06:55.256Z,101075.78
2023-03-11T06:07:58.997Z,101080.53
2023-03-11T06:09:04.931Z,101082.31
2023-03-11T06:10:14.890Z,101081.03
2023-03-11T06:11:19.024Z,101062.09
2023-03-11T06:12:22.843Z,101073.09
2023-03-11T06:13:29.437Z,101078.38
2023-03-11T06:14:33.180Z,101077.19
2023-03-11T06:15:37.692Z,101077.41
2023-03-11T06:16:43.364Z,101064.94
2023-03-11T06:17:47.138Z,101053.84
2023-03-11T06:18:53.785Z,101070.84
2023-03-11T06:19:57.563Z,101062.16
2023-03-11T06:21:02.486Z,101060.13
2023-03-11T06:22:06.318Z,101065.72
2023-03-11T06:23:10.449Z,101057.47
2023-03-11T06:24:14.338Z,101053.31
2023-03-11T06:25:18.347Z,101057.22
2023-03-11T06:26:24.244Z,101050.47
2023-03-11T06:27:30.728Z,101052.50
2023-03-11T06:28:34.672Z,101044.09
2023-03-11T06:29:38.504Z,101054.66
2023-03-11T06:30:42.470Z,101048.84
2023-03-11T06:31:50.777Z,101043.03
2023-03-11T06:32:57.409Z,101044.84
2023-03-11T06:34:01.216Z,101035.19
2023-03-11T06:35:05.521Z,101042.94
2023-03-11T06:36:12.857Z,101044.03
2023-03-11T06:37:18.773Z,101035.91
2023-03-11T06:38:22.533Z,101035.47
2023-03-11T06:39:26.259Z,101036.69
2023-03-11T06:40:33.013Z,101034.47
2023-03-11T06:41:39.811Z,101033.41
2023-03-11T06:42:45.959Z,101029.09
2023-03-11T06:43:53.707Z,101032.34
2023-03-11T06:44:59.782Z,101028.75
2023-03-11T06:46:11.374Z,101028.59
2023-03-11T06:47:42.462Z,101029.63
2023-03-11T06:48:46.846Z,101021.53
2023-03-11T06:49:51.661Z,101010.81
2023-03-11T06:50:58.222Z,101028.16
2023-03-11T06:52:01.953Z,101024.66
2023-03-11T06:53:10.149Z,101023.13
2023-03-11T06:54:13.896Z,101027.50
2023-03-11T06:55:22.390Z,101021.69
2023-03-11T06:56:31.523Z,101020.31
2023-03-11T06:57:37.904Z,101021.72
2023-03-11T06:58:43.299Z,101011.06
2023-03-11T06:59:47.107Z,101012.91
2023-03-11T07:00:50.832Z,101010.50
2023-03-11T07:01:54.652Z,101012.91
2023-03-11T07:03:00.035Z,101013.56
2023-03-11T07:04:07.055Z,100998.63
2023-03-11T07:05:11.427Z,101001.47
2023-03-11T07:06:18.933Z,100998.53
2023-03-11T07:07:24.634Z,100999.06
2023-03-11T07:08:29.416Z,100997.00
2023-03-11T07:09:33.164Z,101002.31
2023-03-11T07:10:44.501Z,100989.25
2023-03-11T07:11:50.605Z,100988.69
2023-03-11T07:12:54.421Z,100993.53
2023-03-11T07:14:00.675Z,100980.16
2023-03-11T07:15:05.422Z,100975.75
2023-03-11T07:16:17.045Z,100977.53
2023-03-11T07:17:23.526Z,100981.09
2023-03-11T07:18:29.031Z,100981.91
2023-03-11T07:19:35.615Z,100976.63
2023-03-11T07:20:39.375Z,100981.19
2023-03-11T07:21:43.313Z,100970.13
2023-03-11T07:22:50.526Z,100968.84
2023-03-11T07:23:56.012Z,100966.31
2023-03-11T07:25:02.978Z,100967.91
2023-03-11T07:26:08.995Z,100967.63
2023-03-11T07:27:15.559Z,100932.06
2023-03-11T07:28:21.736Z,100973.97
2023-03-11T07:29:25.476Z,100956.81
2023-03-11T07:30:35.043Z,100958.84
2023-03-11T07:31:39.041Z,100955.81
2023-03-11T07:32:43.567Z,100952.75
2023-03-11T07:33:49.090Z,100954.28
2023-03-11T07:34:52.882Z,100948.53
2023-03-11T07:35:56.683Z,100947.56
2023-03-11T07:37:00.750Z,100940.00
2023-03-11T07:38:04.658Z,100923.38
2023-03-11T07:39:08.842Z,100940.91
2023-03-11T07:40:13.550Z,100941.97
2023-03-11T07:41:17.393Z,100939.47
2023-03-11T07:42:21.914Z,100936.34
2023-03-11T07:43:28.646Z,100933.72
2023-03-11T07:44:32.411Z,100931.75
2023-03-11T07:45:36.299Z,100938.69
2023-03-11T07:46:42.524Z,100930.34
2023-03-11T07:47:46.261Z,100922.78
2023-03-11T07:48:55.088Z,100924.19
2023-03-11T07:49:58.841Z,100915.88
2023-03-11T07:51:04.347Z,100917.16
2023-03-11T07:52:08.443Z,100919.00
2023-03-11T07:53:12.188Z,100899.53
2023-03-11T07:54:18.076Z,100910.47
2023-03-11T07:55:21.868Z,100916.88
2023-03-11T07:56:27.270Z,100911.25
2023-03-11T07:57:37.912Z,100903.63
2023-03-11T07:58:43.573Z,100898.66
2023-03-11T07:59:48.997Z,100909.00
2023-03-11T08:00:53.223Z,100909.00
2023-03-11T08:01:56.962Z,100899.03
2023-03-11T08:03:02.170Z,100900.06
2023-03-11T08:04:12.924Z,100906.22
2023-03-11T08:05:21.012Z,100897.91
2023-03-11T08:06:31.609Z,100905.22
2023-03-11T08:07:35.753Z,100893.84
2023-03-11T08:08:39.584Z,100897.50
2023-03-11T08:09:43.414Z,100898.38
2023-03-11T08:10:47.179Z,100893.63
2023-03-11T08:12:01.370Z,100887.28
2023-03-11T08:14:24.285Z,100895.00
2023-03-11T08:15:28.265Z,100873.63
2023-03-11T08:16:32.106Z,100890.03
2023-03-11T08:17:35.829Z,100884.72
2023-03-11T08:18:42.743Z,100877.66
2023-03-11T08:19:53.469Z,100895.88
2023-03-11T08:21:01.420Z,100886.75
2023-03-11T08:22:06.209Z,100885.53
2023-03-11T08:23:10.231Z,100890.13
2023-03-11T08:24:14.986Z,100880.84
2023-03-11T08:25:19.034Z,100884.44
2023-03-11T08:26:26.059Z,100888.00
2023-03-11T08:27:33.007Z,100880.50
2023-03-11T08:28:37.815Z,100884.34
2023-03-11T08:29:42.068Z,100884.81
2023-03-11T08:30:46.214Z,100883.34
2023-03-11T08:31:50.005Z,100879.69
2023-03-11T08:32:57.067Z,100875.06
2023-03-11T08:34:03.151Z,100886.13
2023-03-11T08:35:17.717Z,100892.16
2023-03-11T08:36:22.000Z,100885.22
2023-03-11T08:37:28.037Z,100886.41
2023-03-11T08:38:34.158Z,100883.47
2023-03-11T08:39:45.482Z,100889.19
2023-03-11T08:40:49.322Z,100889.09
2023-03-11T08:41:53.702Z,100886.25
2023-03-11T08:44:20.054Z,100888.38
2023-03-11T08:45:27.010Z,100891.88
2023-03-11T08:46:34.630Z,100890.75
2023-03-11T08:47:39.259Z,100890.75
2023-03-11T08:48:45.598Z,100897.34
2023-03-11T08:49:55.090Z,100888.88
2023-03-11T08:51:03.368Z,100895.72
2023-03-11T08:52:07.733Z,100889.19
2023-03-11T08:53:14.620Z,100874.38
2023-03-11T08:54:21.193Z,100894.72
2023-03-11T08:55:27.422Z,100888.75
2023-03-11T08:56:31.529Z,100886.47
2023-03-11T08:57:38.262Z,100897.69
2023-03-11T08:58:44.888Z,100883.25
2023-03-11T08:59:51.599Z,100896.13
2023-03-11T09:00:55.902Z,100890.56
2023-03-11T09:02:02.647Z,100893.34
2023-03-11T09:03:06.739Z,100888.38
2023-03-11T09:04:10.737Z,100892.81
2023-03-11T09:05:21.972Z,100890.03
2023-03-11T09:06:27.413Z,100879.25
2023-03-11T09:07:31.291Z,100886.28
2023-03-11T09:08:35.753Z,100881.03
2023-03-11T09:09:39.710Z,100888.38
2023-03-11T09:10:45.468Z,100886.19
2023-03-11T09:11:49.515Z,100882.00
2023-03-11T09:12:56.054Z,100887.94
2023-03-11T09:14:02.992Z,100897.94
2023-03-11T09:15:07.598Z,100883.06
2023-03-11T09:16:23.547Z,100878.78
2023-03-11T09:17:27.342Z,100889.28
2023-03-11T09:18:32.473Z,100884.38
2023-03-11T09:19:36.332Z,100892.69
2023-03-11T09:20:40.419Z,100900.00
2023-03-11T09:21:46.032Z,100888.56
2023-03-11T09:22:58.825Z,100888.91
2023-03-11T09:24:04.938Z,100899.44
2023-03-11T09:25:10.817Z,100905.00
2023-03-11T09:26:14.962Z,100901.00
2023-03-11T09:27:20.891Z,100895.44
2023-03-11T09:28:24.839Z,100897.13
2023-03-11T09:29:32.308Z,100893.31
2023-03-11T09:30:38.999Z,100904.03
2023-03-11T09:31:48.232Z,100904.38
2023-03-11T09:32:55.966Z,100896.50
2023-03-11T09:34:02.651Z,100890.78
2023-03-11T09:35:09.267Z,100896.13
2023-03-11T09:36:16.803Z,100904.97
2023-03-11T09:37:22.307Z,100899.59
2023-03-11T09:38:26.469Z,100909.16
2023-03-11T09:39:30.507Z,100907.56
2023-03-11T09:40:47.926Z,100898.81
2023-03-11T09:41:59.222Z,100904.31
2023-03-11T09:43:12.628Z,100901.84
2023-03-11T09:44:24.340Z,100902.72
2023-03-11T09:45:30.917Z,100901.22
2023-03-11T09:46:51.944Z,100897.63
2023-03-11T09:48:09.625Z,100918.66
2023-03-11T09:49:27.805Z,100907.28
2023-03-11T09:50:35.868Z,100895.50
2023-03-11T09:51:43.914Z,100909.94
2023-03-11T09:53:03.210Z,100907.56
2023-03-11T09:54:12.654Z,100912.00
2023-03-11T09:55:32.622Z,100908.97
2023-03-11T09:56:42.866Z,100911.06
2023-03-11T09:57:49.032Z,100907.78
2023-03-11T09:59:05.807Z,100907.28
2023-03-11T10:00:16.320Z,100910.94
2023-03-11T10:01:25.417Z,100911.06
2023-03-11T10:02:29.584Z,100914.06
2023-03-11T10:03:39.790Z,100914.50
2023-03-11T10:04:53.874Z,100911.34
2023-03-11T10:06:13.154Z,100919.13
2023-03-11T10:07:19.982Z,100914.50
2023-03-11T10:08:36.564Z,100907.84
2023-03-11T10:09:46.566Z,100918.16
2023-03-11T10:11:02.472Z,100912.00
2023-03-11T10:12:22.594Z,100912.81
2023-03-11T10:15:18.974Z,100908.91
2023-03-11T10:16:32.252Z,100909.50
2023-03-11T10:18:03.771Z,100917.53
2023-03-11T10:19:19.813Z,100919.06
2023-03-11T10:20:28.515Z,100919.06
2023-03-11T10:21:46.604Z,100914.69
2023-03-11T10:23:07.534Z,100915.13
2023-03-11T10:24:37.577Z,100913.66
2023-03-11T10:26:06.565Z,100914.94
2023-03-11T10:27:16.305Z,100917.16
2023-03-11T10:28:31.932Z,100920.81
2023-03-11T10:29:54.347Z,100922.75
2023-03-11T10:31:06.796Z,100915.19
2023-03-11T10:32:21.617Z,100921.69
2023-03-11T10:33:40.006Z,100928.06
2023-03-11T10:34:48.626Z,100919.16
2023-03-11T10:35:59.829Z,100926.09
2023-03-11T10:37:07.951Z,100934.25
2023-03-11T10:38:19.178Z,100918.69
2023-03-11T10:39:25.379Z,100918.97
2023-03-11T10:40:32.906Z,100929.81
2023-03-11T10:41:51.489Z,100928.22
2023-03-11T20:02:13.355Z,101076.13
